sensor_id;sensor_type;location;lat;lon;timestamp;pressure;altitude;pressure_sealevel;temperature;humidity
6150;BME280;3106;42.670;23.318;2022-10-14T05:01:27;94611.09;;;12.76;95.46
6150;BME280;3106;42.670;23.318;2022-10-14T05:03:54;94611.97;;;12.80;94.97
6150;BME280;3106;42.670;23.318;2022-10-14T05:06:25;94616.56;;;12.80;94.55
6150;BME280;3106;42.670;23.318;2022-10-14T05:08:55;94589.22;;;12.74;93.99
6150;BME280;3106;42.670;23.318;2022-10-14T05:11:22;94601.16;;;12.77;93.92
6150;BME280;3106;42.670;23.318;2022-10-14T05:13:52;94580.31;;;12.70;93.70
6150;BME280;3106;42.670;23.318;2022-10-14T05:16:24;94575.81;;;12.74;93.41
6150;BME280;3106;42.670;23.318;2022-10-14T05:18:53;94598.63;;;12.84;92.94
6150;BME280;3106;42.670;23.318;2022-10-14T05:21:23;94569.59;;;12.70;92.30
6150;BME280;3106;42.670;23.318;2022-10-14T05:23:51;94593.06;;;12.92;91.75
6150;BME280;3106;42.670;23.318;2022-10-14T05:26:22;94565.50;;;12.76;91.39
6150;BME280;3106;42.670;23.318;2022-10-14T05:28:50;94596.84;;;13.07;90.76
6150;BME280;3106;42.670;23.318;2022-10-14T05:31:21;94603.03;;;13.11;90.43
6150;BME280;3106;42.670;23.318;2022-10-14T05:34:04;94607.22;;;13.27;89.77
6150;BME280;3106;42.670;23.318;2022-10-14T05:36:34;94608.44;;;13.30;89.24
6150;BME280;3106;42.670;23.318;2022-10-14T05:39:06;94597.34;;;13.31;88.68
6150;BME280;3106;42.670;23.318;2022-10-14T05:41:33;94581.50;;;13.26;87.61
6150;BME280;3106;42.670;23.318;2022-10-14T05:44:02;94596.34;;;13.39;86.67
6150;BME280;3106;42.670;23.318;2022-10-14T05:46:30;94585.09;;;13.34;86.61
6150;BME280;3106;42.670;23.318;2022-10-14T05:49:00;94625.94;;;13.61;86.05
6150;BME280;3106;42.670;23.318;2022-10-14T05:51:35;94629.13;;;13.67;85.85
6150;BME280;3106;42.670;23.318;2022-10-14T05:54:05;94627.75;;;13.76;85.82
6150;BME280;3106;42.670;23.318;2022-10-14T05:56:35;94629.50;;;13.88;85.45
6150;BME280;3106;42.670;23.318;2022-10-14T05:59:02;94611.16;;;13.71;85.34
6150;BME280;3106;42.670;23.318;2022-10-14T06:01:29;94622.44;;;13.80;84.65
6150;BME280;3106;42.670;23.318;2022-10-14T06:04:03;94616.88;;;13.69;84.77
6150;BME280;3106;42.670;23.318;2022-10-14T06:06:31;94641.50;;;13.94;84.32
6150;BME280;3106;42.670;23.318;2022-10-14T06:09:00;94620.91;;;13.79;84.29
6150;BME280;3106;42.670;23.318;2022-10-14T06:11:29;94638.94;;;14.01;84.15
6150;BME280;3106;42.670;23.318;2022-10-14T06:13:56;94626.47;;;13.89;83.86
6150;BME280;3106;42.670;23.318;2022-10-14T06:16:24;94648.94;;;14.00;83.92
6150;BME280;3106;42.670;23.318;2022-10-14T06:18:52;94633.56;;;14.01;83.79
6150;BME280;3106;42.670;23.318;2022-10-14T06:21:20;94657.88;;;14.27;83.56
6150;BME280;3106;42.670;23.318;2022-10-14T06:23:48;94604.91;;;14.08;82.77
6150;BME280;3106;42.670;23.318;2022-10-14T06:26:19;94645.50;;;14.45;82.52
6150;BME280;3106;42.670;23.318;2022-10-14T06:28:47;94644.38;;;14.46;83.17
6150;BME280;3106;42.670;23.318;2022-10-14T06:31:14;94640.66;;;14.31;83.17
6150;BME280;3106;42.670;23.318;2022-10-14T06:33:41;94650.88;;;14.45;82.51
6150;BME280;3106;42.670;23.318;2022-10-14T06:36:13;94674.47;;;14.55;82.02
6150;BME280;3106;42.670;23.318;2022-10-14T06:38:41;94664.56;;;14.59;81.08
6150;BME280;3106;42.670;23.318;2022-10-14T06:41:09;94661.66;;;14.71;80.87
6150;BME280;3106;42.670;23.318;2022-10-14T06:43:40;94649.72;;;14.68;80.43
6150;BME280;3106;42.670;23.318;2022-10-14T06:46:11;94657.81;;;14.72;80.15
6150;BME280;3106;42.670;23.318;2022-10-14T06:48:46;94674.47;;;14.77;80.27
6150;BME280;3106;42.670;23.318;2022-10-14T06:51:14;94661.34;;;14.76;80.24
6150;BME280;3106;42.670;23.318;2022-10-14T06:53:42;94660.94;;;14.74;80.12
6150;BME280;3106;42.670;23.318;2022-10-14T06:56:09;94655.28;;;14.79;80.59
6150;BME280;3106;42.670;23.318;2022-10-14T06:58:39;94624.88;;;14.78;79.94
6150;BME280;3106;42.670;23.318;2022-10-14T07:01:07;94645.59;;;15.00;79.29
6150;BME280;3106;42.670;23.318;2022-10-14T07:03:35;94626.72;;;15.00;78.64
6150;BME280;3106;42.670;23.318;2022-10-14T07:06:04;94629.53;;;15.10;78.19
6150;BME280;3106;42.670;23.318;2022-10-14T07:08:31;94652.75;;;15.18;78.39
6150;BME280;3106;42.670;23.318;2022-10-14T07:10:58;94654.50;;;15.33;78.30
6150;BME280;3106;42.670;23.318;2022-10-14T07:13:25;94625.81;;;15.18;78.15
6150;BME280;3106;42.670;23.318;2022-10-14T07:15:53;94643.78;;;15.37;76.92
6150;BME280;3106;42.670;23.318;2022-10-14T07:18:21;94631.09;;;15.37;75.44
6150;BME280;3106;42.670;23.318;2022-10-14T07:20:48;94653.69;;;15.59;75.50
6150;BME280;3106;42.670;23.318;2022-10-14T07:23:15;94647.53;;;15.58;75.78
6150;BME280;3106;42.670;23.318;2022-10-14T07:25:42;94655.69;;;15.65;74.26
6150;BME280;3106;42.670;23.318;2022-10-14T07:28:09;94663.91;;;15.76;74.04
6150;BME280;3106;42.670;23.318;2022-10-14T07:30:36;94666.63;;;15.79;73.66
6150;BME280;3106;42.670;23.318;2022-10-14T07:33:04;94650.75;;;15.71;73.46
6150;BME280;3106;42.670;23.318;2022-10-14T07:35:31;94656.97;;;15.78;74.34
6150;BME280;3106;42.670;23.318;2022-10-14T07:37:59;94632.66;;;15.71;74.00
6150;BME280;3106;42.670;23.318;2022-10-14T07:40:26;94648.00;;;16.00;73.54
6150;BME280;3106;42.670;23.318;2022-10-14T07:42:55;94634.06;;;15.95;73.35
6150;BME280;3106;42.670;23.318;2022-10-14T07:45:24;94652.91;;;15.91;73.79
6150;BME280;3106;42.670;23.318;2022-10-14T07:47:51;94635.13;;;15.87;73.53
6150;BME280;3106;42.670;23.318;2022-10-14T07:50:19;94644.16;;;16.01;73.39
6150;BME280;3106;42.670;23.318;2022-10-14T07:52:46;94630.28;;;16.03;73.26
6150;BME280;3106;42.670;23.318;2022-10-14T07:55:14;94661.47;;;16.37;72.34
6150;BME280;3106;42.670;23.318;2022-10-14T07:57:41;94654.44;;;16.29;71.00
6150;BME280;3106;42.670;23.318;2022-10-14T08:00:08;94649.19;;;16.06;71.25
6150;BME280;3106;42.670;23.318;2022-10-14T08:02:35;94652.19;;;15.98;71.49
6150;BME280;3106;42.670;23.318;2022-10-14T08:05:03;94615.00;;;15.77;71.00
6150;BME280;3106;42.670;23.318;2022-10-14T08:07:31;94645.59;;;15.92;71.02
6150;BME280;3106;42.670;23.318;2022-10-14T08:09:58;94649.53;;;16.01;71.16
6150;BME280;3106;42.670;23.318;2022-10-14T08:12:26;94631.13;;;16.10;70.12
6150;BME280;3106;42.670;23.318;2022-10-14T08:14:54;94631.97;;;16.18;69.77
6150;BME280;3106;42.670;23.318;2022-10-14T08:17:22;94644.44;;;16.33;69.27
6150;BME280;3106;42.670;23.318;2022-10-14T08:19:50;94634.69;;;16.21;69.59
6150;BME280;3106;42.670;23.318;2022-10-14T08:22:18;94638.63;;;16.27;69.57
6150;BME280;3106;42.670;23.318;2022-10-14T08:24:47;94641.81;;;16.40;68.32
6150;BME280;3106;42.670;23.318;2022-10-14T08:27:14;94641.22;;;16.17;68.30
6150;BME280;3106;42.670;23.318;2022-10-14T08:29:42;94668.06;;;16.39;67.95
6150;BME280;3106;42.670;23.318;2022-10-14T08:32:09;94671.59;;;16.47;67.21
6150;BME280;3106;42.670;23.318;2022-10-14T08:34:36;94662.31;;;16.44;67.73
6150;BME280;3106;42.670;23.318;2022-10-14T08:37:03;94636.50;;;16.47;67.34
6150;BME280;3106;42.670;23.318;2022-10-14T08:39:30;94640.13;;;16.65;66.43
6150;BME280;3106;42.670;23.318;2022-10-14T08:42:16;94668.00;;;16.79;65.58
6150;BME280;3106;42.670;23.318;2022-10-14T08:44:49;94658.03;;;16.90;65.17
6150;BME280;3106;42.670;23.318;2022-10-14T08:47:20;94651.59;;;17.05;64.61
6150;BME280;3106;42.670;23.318;2022-10-14T08:49:58;94634.47;;;16.83;63.45
6150;BME280;3106;42.670;23.318;2022-10-14T08:52:30;94654.28;;;17.01;64.18
6150;BME280;3106;42.670;23.318;2022-10-14T08:55:00;94637.28;;;16.97;64.10
6150;BME280;3106;42.670;23.318;2022-10-14T08:57:33;94627.63;;;16.96;63.66
6150;BME280;3106;42.670;23.318;2022-10-14T09:00:04;94640.81;;;17.08;61.93
6150;BME280;3106;42.670;23.318;2022-10-14T09:02:39;94649.41;;;17.28;61.39
6150;BME280;3106;42.670;23.318;2022-10-14T09:05:13;94615.75;;;17.15;60.39
6150;BME280;3106;42.670;23.318;2022-10-14T10:02:20;94633.34;;;17.49;60.43
6150;BME280;3106;42.670;23.318;2022-10-14T10:04:48;94632.91;;;17.40;59.09
6150;BME280;3106;42.670;23.318;2022-10-14T10:07:27;94616.50;;;17.08;59.72
6150;BME280;3106;42.670;23.318;2022-10-14T10:09:55;94626.91;;;17.06;60.39
6150;BME280;3106;42.670;23.318;2022-10-14T10:12:28;94628.81;;;16.99;60.58
6150;BME280;3106;42.670;23.318;2022-10-14T10:14:56;94635.09;;;17.20;59.51
6150;BME280;3106;42.670;23.318;2022-10-14T10:17:26;94618.22;;;17.34;57.83
6150;BME280;3106;42.670;23.318;2022-10-14T10:20:11;94637.13;;;17.34;57.43
6150;BME280;3106;42.670;23.318;2022-10-14T10:22:42;94614.75;;;17.40;55.26
6150;BME280;3106;42.670;23.318;2022-10-14T10:25:22;94620.19;;;17.44;54.83
6150;BME280;3106;42.670;23.318;2022-10-14T10:27:56;94618.63;;;17.36;55.13
6150;BME280;3106;42.670;23.318;2022-10-14T10:30:25;94629.53;;;17.64;54.28
6150;BME280;3106;42.670;23.318;2022-10-14T10:33:02;94627.66;;;17.75;51.64
6150;BME280;3106;42.670;23.318;2022-10-14T10:35:46;94615.25;;;17.67;52.17
6150;BME280;3106;42.670;23.318;2022-10-14T10:38:21;94587.00;;;17.50;52.70
6150;BME280;3106;42.670;23.318;2022-10-14T10:40:57;94618.00;;;17.81;51.81
6150;BME280;3106;42.670;23.318;2022-10-14T10:46:49;94619.19;;;18.01;51.95
6150;BME280;3106;42.670;23.318;2022-10-14T10:49:37;94587.94;;;18.07;50.86
6150;BME280;3106;42.670;23.318;2022-10-14T10:52:13;94599.16;;;18.09;50.68
6150;BME280;3106;42.670;23.318;2022-10-14T10:54:48;94589.78;;;17.75;52.06
6150;BME280;3106;42.670;23.318;2022-10-14T10:57:30;94574.22;;;17.40;49.74
6150;BME280;3106;42.670;23.318;2022-10-14T11:00:06;94617.47;;;17.47;50.53
6150;BME280;3106;42.670;23.318;2022-10-14T11:02:53;94578.75;;;17.26;49.28
6150;BME280;3106;42.670;23.318;2022-10-14T11:05:33;94568.66;;;17.12;48.61
6150;BME280;3106;42.670;23.318;2022-10-14T11:08:15;94578.47;;;17.41;49.58
6150;BME280;3106;42.670;23.318;2022-10-14T11:11:12;94600.97;;;17.70;48.12
6150;BME280;3106;42.670;23.318;2022-10-14T11:14:12;94580.88;;;17.67;45.23
6150;BME280;3106;42.670;23.318;2022-10-14T11:16:46;94601.03;;;17.87;43.59
6150;BME280;3106;42.670;23.318;2022-10-14T11:19:25;94571.66;;;17.86;43.32
6150;BME280;3106;42.670;23.318;2022-10-14T11:22:19;94579.41;;;17.94;41.73
6150;BME280;3106;42.670;23.318;2022-10-14T11:25:00;94580.16;;;17.88;41.98
6150;BME280;3106;42.670;23.318;2022-10-14T11:27:34;94575.94;;;17.97;41.35
6150;BME280;3106;42.670;23.318;2022-10-14T11:30:13;94568.97;;;17.96;40.26
6150;BME280;3106;42.670;23.318;2022-10-14T11:32:50;94574.03;;;18.25;39.67
6150;BME280;3106;42.670;23.318;2022-10-14T11:35:29;94528.03;;;18.05;39.92
6150;BME280;3106;42.670;23.318;2022-10-14T11:38:13;94550.81;;;18.18;40.63
6150;BME280;3106;42.670;23.318;2022-10-14T11:40:46;94525.69;;;18.21;40.78
6150;BME280;3106;42.670;23.318;2022-10-14T11:43:22;94524.94;;;18.30;39.24
6150;BME280;3106;42.670;23.318;2022-10-14T11:45:55;94543.50;;;18.56;38.71
6150;BME280;3106;42.670;23.318;2022-10-14T11:48:31;94563.59;;;18.52;38.55
6150;BME280;3106;42.670;23.318;2022-10-14T11:51:07;94533.81;;;18.62;38.94
6150;BME280;3106;42.670;23.318;2022-10-14T11:53:44;94538.38;;;18.90;38.03
6150;BME280;3106;42.670;23.318;2022-10-14T11:56:22;94530.25;;;18.97;37.16
6150;BME280;3106;42.670;23.318;2022-10-14T11:58:53;94537.19;;;19.05;36.84
6150;BME280;3106;42.670;23.318;2022-10-14T12:01:25;94528.72;;;18.96;36.05
6150;BME280;3106;42.670;23.318;2022-10-14T12:04:02;94540.31;;;18.96;36.13
6150;BME280;3106;42.670;23.318;2022-10-14T12:06:34;94544.59;;;18.76;36.09
6150;BME280;3106;42.670;23.318;2022-10-14T12:09:10;94524.13;;;18.58;35.88
6150;BME280;3106;42.670;23.318;2022-10-14T12:11:44;94526.38;;;18.98;36.38
6150;BME280;3106;42.670;23.318;2022-10-14T12:14:18;94533.75;;;18.87;35.57
6150;BME280;3106;42.670;23.318;2022-10-14T12:16:47;94526.81;;;18.75;35.91
6150;BME280;3106;42.670;23.318;2022-10-14T12:19:19;94519.09;;;18.63;35.67
6150;BME280;3106;42.670;23.318;2022-10-14T12:21:51;94540.00;;;18.70;35.82
6150;BME280;3106;42.670;23.318;2022-10-14T12:24:24;94552.00;;;18.62;36.31
6150;BME280;3106;42.670;23.318;2022-10-14T12:26:55;94539.25;;;18.38;36.51
6150;BME280;3106;42.670;23.318;2022-10-14T12:29:27;94554.69;;;18.17;36.95
6150;BME280;3106;42.670;23.318;2022-10-14T12:32:16;94555.84;;;18.16;37.19
6150;BME280;3106;42.670;23.318;2022-10-14T12:34:45;94534.97;;;17.95;37.21
6150;BME280;3106;42.670;23.318;2022-10-14T12:40:27;94537.25;;;17.90;37.42
6150;BME280;3106;42.670;23.318;2022-10-14T12:42:58;94519.84;;;17.70;37.68
6150;BME280;3106;42.670;23.318;2022-10-14T12:45:27;94532.22;;;17.74;39.62
6150;BME280;3106;42.670;23.318;2022-10-14T12:48:05;94505.56;;;17.73;39.77
6150;BME280;3106;42.670;23.318;2022-10-14T12:50:37;94537.63;;;17.71;38.29
6150;BME280;3106;42.670;23.318;2022-10-14T12:53:06;94551.19;;;17.88;39.15
6150;BME280;3106;42.670;23.318;2022-10-14T12:55:46;94507.06;;;17.67;40.93
6150;BME280;3106;42.670;23.318;2022-10-14T12:58:22;94544.22;;;17.91;41.52
6150;BME280;3106;42.670;23.318;2022-10-14T13:00:54;94532.25;;;17.92;40.62
6150;BME280;3106;42.670;23.318;2022-10-14T13:03:25;94500.16;;;17.73;39.78
6150;BME280;3106;42.670;23.318;2022-10-14T13:06:26;94536.13;;;17.94;40.84
6150;BME280;3106;42.670;23.318;2022-10-14T13:12:39;94532.63;;;17.94;41.44
6150;BME280;3106;42.670;23.318;2022-10-14T13:18:36;94542.31;;;17.98;42.07
6150;BME280;3106;42.670;23.318;2022-10-14T13:21:29;94526.81;;;17.99;42.48
6150;BME280;3106;42.670;23.318;2022-10-14T13:23:59;94524.53;;;17.97;42.91
6150;BME280;3106;42.670;23.318;2022-10-14T13:26:34;94531.84;;;17.83;43.03
6150;BME280;3106;42.670;23.318;2022-10-14T13:29:22;94523.31;;;17.67;43.75
6150;BME280;3106;42.670;23.318;2022-10-14T13:32:01;94505.50;;;17.38;44.59
6150;BME280;3106;42.670;23.318;2022-10-14T13:34:38;94529.84;;;17.45;44.77
6150;BME280;3106;42.670;23.318;2022-10-14T13:37:27;94515.84;;;17.29;44.34
6150;BME280;3106;42.670;23.318;2022-10-14T13:39:56;94494.13;;;17.01;44.22
6150;BME280;3106;42.670;23.318;2022-10-14T13:42:26;94525.41;;;17.12;44.58
6150;BME280;3106;42.670;23.318;2022-10-14T13:45:03;94505.66;;;16.91;44.47
6150;BME280;3106;42.670;23.318;2022-10-14T13:47:33;94511.41;;;16.86;43.85
6150;BME280;3106;42.670;23.318;2022-10-14T13:50:01;94513.31;;;16.75;43.89
6150;BME280;3106;42.670;23.318;2022-10-14T13:52:31;94527.97;;;16.81;44.26
6150;BME280;3106;42.670;23.318;2022-10-14T13:55:13;94501.25;;;16.59;43.80
6150;BME280;3106;42.670;23.318;2022-10-14T13:57:42;94521.38;;;16.68;43.77
6150;BME280;3106;42.670;23.318;2022-10-14T14:00:26;94521.75;;;16.73;43.57
6150;BME280;3106;42.670;23.318;2022-10-14T14:02:53;94530.66;;;16.74;44.16
6150;BME280;3106;42.670;23.318;2022-10-14T14:05:20;94502.81;;;16.63;43.85
6150;BME280;3106;42.670;23.318;2022-10-14T14:07:49;94539.25;;;16.93;43.90
6150;BME280;3106;42.670;23.318;2022-10-14T14:10:19;94533.88;;;16.97;43.38
6150;BME280;3106;42.670;23.318;2022-10-14T14:12:49;94498.69;;;16.83;43.71
6150;BME280;3106;42.670;23.318;2022-10-14T14:15:20;94538.97;;;17.16;43.64
6150;BME280;3106;42.670;23.318;2022-10-14T14:17:49;94517.38;;;17.19;42.59
6150;BME280;3106;42.670;23.318;2022-10-14T14:20:19;94532.81;;;17.26;42.80
6150;BME280;3106;42.670;23.318;2022-10-14T14:22:47;94513.06;;;17.01;42.67
6150;BME280;3106;42.670;23.318;2022-10-14T14:25:21;94533.19;;;17.17;42.44
6150;BME280;3106;42.670;23.318;2022-10-14T14:27:51;94540.88;;;17.12;43.05
6150;BME280;3106;42.670;23.318;2022-10-14T14:30:28;94526.94;;;17.03;43.08
6150;BME280;3106;42.670;23.318;2022-10-14T14:32:59;94514.09;;;16.79;42.94
6150;BME280;3106;42.670;23.318;2022-10-14T14:35:26;94557.81;;;17.05;43.60
6150;BME280;3106;42.670;23.318;2022-10-14T14:37:54;94548.47;;;16.89;42.48
6150;BME280;3106;42.670;23.318;2022-10-14T16:34:56;94563.63;;;14.72;68.20
6150;BME280;3106;42.670;23.318;2022-10-14T16:37:23;94556.94;;;14.59;68.43
6150;BME280;3106;42.670;23.318;2022-10-14T16:39:49;94570.78;;;14.61;68.99
6150;BME280;3106;42.670;23.318;2022-10-14T16:42:16;94572.75;;;14.64;69.91
6150;BME280;3106;42.670;23.318;2022-10-14T16:44:43;94585.56;;;14.74;69.48
6150;BME280;3106;42.670;23.318;2022-10-14T16:47:10;94568.91;;;14.65;69.08
6150;BME280;3106;42.670;23.318;2022-10-14T16:49:47;94545.97;;;14.45;69.74
6150;BME280;3106;42.670;23.318;2022-10-14T16:52:19;94563.44;;;14.58;69.83
6150;BME280;3106;42.670;23.318;2022-10-14T16:54:46;94587.03;;;14.68;69.37
6150;BME280;3106;42.670;23.318;2022-10-14T16:57:17;94552.00;;;14.38;68.71
6150;BME280;3106;42.670;23.318;2022-10-14T17:00:06;94581.38;;;14.50;68.88
6150;BME280;3106;42.670;23.318;2022-10-14T17:02:33;94578.28;;;14.48;68.52
6150;BME280;3106;42.670;23.318;2022-10-14T17:05:00;94588.28;;;14.48;67.30
6150;BME280;3106;42.670;23.318;2022-10-14T17:07:29;94580.94;;;14.45;67.75
6150;BME280;3106;42.670;23.318;2022-10-14T17:09:56;94575.50;;;14.41;68.28
6150;BME280;3106;42.670;23.318;2022-10-14T17:12:24;94572.31;;;14.36;66.83
6150;BME280;3106;42.670;23.318;2022-10-14T17:14:51;94572.72;;;14.34;64.73
6150;BME280;3106;42.670;23.318;2022-10-14T17:17:17;94575.81;;;14.36;62.70
6150;BME280;3106;42.670;23.318;2022-10-14T17:19:48;94575.09;;;14.39;60.86
6150;BME280;3106;42.670;23.318;2022-10-14T17:22:18;94552.16;;;14.23;61.17
6150;BME280;3106;42.670;23.318;2022-10-14T17:24:47;94575.16;;;14.43;61.56
6150;BME280;3106;42.670;23.318;2022-10-14T17:27:16;94555.69;;;14.27;61.06
6150;BME280;3106;42.670;23.318;2022-10-14T17:29:45;94581.81;;;14.52;61.18
6150;BME280;3106;42.670;23.318;2022-10-14T17:32:12;94576.72;;;14.47;59.44
6150;BME280;3106;42.670;23.318;2022-10-14T17:34:42;94573.69;;;14.49;60.82
6150;BME280;3106;42.670;23.318;2022-10-14T17:37:21;94554.22;;;14.33;60.44
6150;BME280;3106;42.670;23.318;2022-10-14T17:39:49;94574.09;;;14.51;58.67
6150;BME280;3106;42.670;23.318;2022-10-14T17:42:16;94558.88;;;14.36;57.78
6150;BME280;3106;42.670;23.318;2022-10-14T17:44:44;94581.03;;;14.52;57.77
6150;BME280;3106;42.670;23.318;2022-10-14T17:47:11;94569.47;;;14.48;57.81
6150;BME280;3106;42.670;23.318;2022-10-14T17:49:38;94583.84;;;14.59;58.86
6150;BME280;3106;42.670;23.318;2022-10-14T17:52:04;94575.66;;;14.52;58.92
6150;BME280;3106;42.670;23.318;2022-10-14T17:54:45;94547.41;;;14.39;58.46
6150;BME280;3106;42.670;23.318;2022-10-14T17:57:27;94559.47;;;14.48;58.47
6150;BME280;3106;42.670;23.318;2022-10-14T17:59:56;94586.16;;;14.60;59.50
6150;BME280;3106;42.670;23.318;2022-10-14T18:02:24;94579.84;;;14.49;59.66
6150;BME280;3106;42.670;23.318;2022-10-14T18:04:52;94582.50;;;14.46;58.51
6150;BME280;3106;42.670;23.318;2022-10-14T18:07:19;94589.75;;;14.42;60.12
6150;BME280;3106;42.670;23.318;2022-10-14T18:09:47;94588.06;;;14.34;60.74
6150;BME280;3106;42.670;23.318;2022-10-14T18:12:18;94571.72;;;14.20;61.37
6150;BME280;3106;42.670;23.318;2022-10-14T18:14:46;94540.50;;;13.93;61.76
6150;BME280;3106;42.670;23.318;2022-10-14T18:17:19;94597.16;;;14.26;63.89
6150;BME280;3106;42.670;23.318;2022-10-14T18:19:46;94566.78;;;14.03;65.07
6150;BME280;3106;42.670;23.318;2022-10-14T18:22:14;94589.56;;;14.09;65.66
6150;BME280;3106;42.670;23.318;2022-10-14T18:24:41;94593.91;;;13.94;67.81
6150;BME280;3106;42.670;23.318;2022-10-14T18:27:09;94563.25;;;13.76;74.15
6150;BME280;3106;42.670;23.318;2022-10-14T18:29:36;94545.88;;;13.48;77.80
6150;BME280;3106;42.670;23.318;2022-10-14T18:32:05;94596.59;;;13.72;77.60
6150;BME280;3106;42.670;23.318;2022-10-14T18:34:39;94556.81;;;13.40;80.81
6150;BME280;3106;42.670;23.318;2022-10-14T19:10:00;94603.91;;;12.80;87.27
6150;BME280;3106;42.670;23.318;2022-10-14T19:12:27;94607.44;;;12.84;87.96
6150;BME280;3106;42.670;23.318;2022-10-14T19:15:10;94611.25;;;12.83;86.94
6150;BME280;3106;42.670;23.318;2022-10-14T19:17:38;94588.53;;;12.77;86.63
6150;BME280;3106;42.670;23.318;2022-10-14T19:20:05;94593.47;;;12.75;86.43
6150;BME280;3106;42.670;23.318;2022-10-14T19:22:33;94608.44;;;12.76;85.64
6150;BME280;3106;42.670;23.318;2022-10-14T19:25:04;94600.66;;;12.71;83.96
6150;BME280;3106;42.670;23.318;2022-10-14T19:27:30;94600.28;;;12.73;82.54
6150;BME280;3106;42.670;23.318;2022-10-14T19:29:57;94581.56;;;12.57;79.73
6150;BME280;3106;42.670;23.318;2022-10-14T19:32:24;94612.56;;;12.74;78.85
6150;BME280;3106;42.670;23.318;2022-10-14T19:34:51;94613.69;;;12.73;78.79
6150;BME280;3106;42.670;23.318;2022-10-14T19:37:18;94618.31;;;12.72;78.95
6150;BME280;3106;42.670;23.318;2022-10-14T19:39:45;94591.38;;;12.50;79.24
6150;BME280;3106;42.670;23.318;2022-10-14T19:42:13;94622.31;;;12.63;77.61
6150;BME280;3106;42.670;23.318;2022-10-14T19:44:40;94627.41;;;12.68;78.07
6150;BME280;3106;42.670;23.318;2022-10-14T19:47:07;94639.88;;;12.60;78.08
6150;BME280;3106;42.670;23.318;2022-10-14T19:49:35;94625.09;;;12.51;77.88
6150;BME280;3106;42.670;23.318;2022-10-14T19:52:02;94616.53;;;12.45;77.93
6150;BME280;3106;42.670;23.318;2022-10-14T20:43:01;94644.59;;;12.82;81.21
6150;BME280;3106;42.670;23.318;2022-10-14T20:45:28;94645.00;;;12.84;80.76
6150;BME280;3106;42.670;23.318;2022-10-14T20:47:55;94632.88;;;12.90;80.78
6150;BME280;3106;42.670;23.318;2022-10-14T20:50:22;94635.41;;;12.99;80.46
6150;BME280;3106;42.670;23.318;2022-10-14T20:52:48;94642.53;;;13.10;78.80
6150;BME280;3106;42.670;23.318;2022-10-14T20:55:16;94632.84;;;13.06;77.80
6150;BME280;3106;42.670;23.318;2022-10-14T20:57:43;94643.81;;;13.16;77.17
6150;BME280;3106;42.670;23.318;2022-10-14T21:00:13;94633.97;;;13.05;77.32
6150;BME280;3106;42.670;23.318;2022-10-14T21:02:40;94648.44;;;13.16;76.97
6150;BME280;3106;42.670;23.318;2022-10-14T21:05:07;94638.66;;;13.08;79.42
6150;BME280;3106;42.670;23.318;2022-10-14T21:07:34;94635.75;;;12.97;80.96
6150;BME280;3106;42.670;23.318;2022-10-14T21:10:01;94626.50;;;12.79;82.54
6150;BME280;3106;42.670;23.318;2022-10-14T21:12:27;94631.44;;;12.77;82.80
6150;BME280;3106;42.670;23.318;2022-10-14T21:14:54;94636.00;;;12.92;82.81
6150;BME280;3106;42.670;23.318;2022-10-14T21:17:22;94610.88;;;12.66;83.74
6150;BME280;3106;42.670;23.318;2022-10-14T21:19:49;94643.13;;;12.85;84.18
6150;BME280;3106;42.670;23.318;2022-10-14T21:22:16;94630.31;;;12.78;85.04
6150;BME280;3106;42.670;23.318;2022-10-14T21:24:43;94638.88;;;12.84;85.54
6150;BME280;3106;42.670;23.318;2022-10-14T21:27:10;94640.16;;;12.90;84.73
6150;BME280;3106;42.670;23.318;2022-10-14T21:29:36;94633.00;;;12.94;85.58
6150;BME280;3106;42.670;23.318;2022-10-14T21:32:04;94638.16;;;13.02;84.62
6150;BME280;3106;42.670;23.318;2022-10-14T21:34:32;94622.34;;;12.97;84.29
6150;BME280;3106;42.670;23.318;2022-10-14T21:36:59;94639.59;;;13.15;84.95
6150;BME280;3106;42.670;23.318;2022-10-14T21:39:25;94641.56;;;13.18;85.53
6150;BME280;3106;42.670;23.318;2022-10-14T21:41:52;94647.69;;;13.00;86.75
6150;BME280;3106;42.670;23.318;2022-10-14T21:44:19;94645.88;;;12.88;86.29
6150;BME280;3106;42.670;23.318;2022-10-14T21:46:47;94653.22;;;12.91;87.06
6150;BME280;3106;42.670;23.318;2022-10-14T21:49:14;94650.38;;;12.84;87.02
6150;BME280;3106;42.670;23.318;2022-10-14T21:51:42;94661.91;;;13.00;85.61
6150;BME280;3106;42.670;23.318;2022-10-14T21:54:09;94659.22;;;13.00;84.99
6150;BME280;3106;42.670;23.318;2022-10-14T21:56:37;94656.00;;;12.95;85.23
6150;BME280;3106;42.670;23.318;2022-10-14T21:59:04;94629.03;;;12.72;85.97
6150;BME280;3106;42.670;23.318;2022-10-14T22:01:31;94638.72;;;12.77;85.22
6150;BME280;3106;42.670;23.318;2022-10-14T22:04:00;94659.72;;;12.90;85.67
6150;BME280;3106;42.670;23.318;2022-10-14T22:06:28;94653.69;;;12.78;86.66
6150;BME280;3106;42.670;23.318;2022-10-14T22:08:58;94660.97;;;12.77;85.61
6150;BME280;3106;42.670;23.318;2022-10-14T22:11:28;94660.63;;;12.79;85.38
6150;BME280;3106;42.670;23.318;2022-10-14T22:13:56;94653.59;;;12.74;84.92
6150;BME280;3106;42.670;23.318;2022-10-14T22:16:24;94660.34;;;12.84;83.99
6150;BME280;3106;42.670;23.318;2022-10-14T22:18:53;94654.28;;;12.87;83.59
6150;BME280;3106;42.670;23.318;2022-10-14T22:21:22;94656.34;;;12.93;83.13
6150;BME280;3106;42.670;23.318;2022-10-14T22:23:50;94656.97;;;12.87;83.44
6150;BME280;3106;42.670;23.318;2022-10-14T22:26:21;94660.41;;;12.87;83.06
6150;BME280;3106;42.670;23.318;2022-10-14T22:28:49;94670.28;;;12.99;83.26
6150;BME280;3106;42.670;23.318;2022-10-14T22:31:21;94669.94;;;13.00;83.36
6150;BME280;3106;42.670;23.318;2022-10-14T22:33:48;94672.69;;;13.04;83.29
6150;BME280;3106;42.670;23.318;2022-10-14T22:36:17;94661.53;;;13.02;83.55
6150;BME280;3106;42.670;23.318;2022-10-14T22:38:45;94654.69;;;13.04;82.97
6150;BME280;3106;42.670;23.318;2022-10-14T22:41:14;94663.22;;;13.10;83.35
6150;BME280;3106;42.670;23.318;2022-10-14T22:43:46;94662.56;;;13.13;83.07
6150;BME280;3106;42.670;23.318;2022-10-14T22:46:14;94660.78;;;13.01;83.13
6150;BME280;3106;42.670;23.318;2022-10-14T22:48:43;94667.75;;;13.06;82.94
6150;BME280;3106;42.670;23.318;2022-10-14T22:51:12;94665.50;;;13.08;82.86
6150;BME280;3106;42.670;23.318;2022-10-14T22:53:40;94647.69;;;13.00;82.85